Time;durP1;ratioP1;P1;durP2;ratioP2;P2;SDS_P1;SDS_P2;PMS_P1;PMS_P2;Temp;Humidity;BMP_temperature;BMP_pressure;BME280_temperature;BME280_humidity;BME280_pressure;Samples;Min_cycle;Max_cycle;Signal;HPM_P1;HPM_P2
2022/01/01 00:01:57;;;;;;;59.70;28.05;;;;;;;;;;5094930;28;20023;-77
2022/01/01 00:04:23;;;;;;;54.00;24.73;;;;;;;;;;5099640;28;20029;-81
2022/01/01 00:06:49;;;;;;;59.92;26.83;;;;;;;;;;5101716;28;20511;-79
2022/01/01 00:09:16;;;;;;;46.67;22.73;;;;;;;;;;5098419;28;20020;-79
2022/01/01 00:11:42;;;;;;;37.97;19.08;;;;;;;;;;5097996;28;20515;-78
2022/01/01 00:14:08;;;;;;;30.15;16.38;;;;;;;;;;5097450;28;20020;-80
2022/01/01 00:16:34;;;;;;;32.60;15.60;;;;;;;;;;5097732;28;20020;-80
2022/01/01 00:19:00;;;;;;;24.98;13.88;;;;;;;;;;5105207;28;20098;-80
2022/01/01 00:21:26;;;;;;;26.10;13.70;;;;;;;;;;5100136;28;21492;-79
2022/01/01 00:23:53;;;;;;;23.33;13.65;;;;;;;;;;5097987;28;20409;-81
2022/01/01 00:26:19;;;;;;;24.80;13.95;;;;;;;;;;5098908;28;20031;-81
2022/01/01 00:28:45;;;;;;;35.75;17.40;;;;;;;;;;5096861;28;20025;-81
2022/01/01 00:31:11;;;;;;;27.48;14.60;;;;;;;;;;5102050;28;20077;-80
2022/01/01 00:33:37;;;;;;;26.45;14.90;;;;;;;;;;5102785;28;20027;-80
2022/01/01 00:36:04;;;;;;;24.63;14.55;;;;;;;;;;5093352;28;20020;-80
2022/01/01 00:38:30;;;;;;;31.63;15.77;;;;;;;;;;5099744;28;20478;-81
2022/01/01 00:40:56;;;;;;;32.22;18.88;;;;;;;;;;5096441;28;20032;-82
2022/01/01 00:43:24;;;;;;;35.67;19.23;;;;;;;;;;5099654;28;20502;-82
2022/01/01 00:45:50;;;;;;;29.88;16.38;;;;;;;;;;5104149;28;20028;-87
2022/01/01 00:48:16;;;;;;;34.45;17.25;;;;;;;;;;5107911;28;20351;-82
2022/01/01 00:50:42;;;;;;;35.67;16.90;;;;;;;;;;5109333;28;20051;-84
2022/01/01 00:53:08;;;;;;;31.92;16.92;;;;;;;;;;5106943;28;20026;-77
2022/01/01 00:55:35;;;;;;;41.45;19.40;;;;;;;;;;5095684;28;20667;-79
2022/01/01 00:58:01;;;;;;;36.65;17.75;;;;;;;;;;5104984;28;20019;-78
2022/01/01 01:00:27;;;;;;;37.33;19.50;;;;;;;;;;5099251;28;20031;-76
2022/01/01 01:02:53;;;;;;;41.35;20.02;;;;;;;;;;5097315;28;20025;-76
2022/01/01 01:05:19;;;;;;;45.78;22.92;;;;;;;;;;5094349;28;20470;-75
2022/01/01 01:07:45;;;;;;;50.08;25.25;;;;;;;;;;5096138;28;20070;-76
2022/01/01 01:10:13;;;;;;;57.42;28.40;;;;;;;;;;5100663;28;20112;-75
2022/01/01 01:12:43;;;;;;;78.55;37.35;;;;;;;;;;5101765;28;20095;-74
2022/01/01 01:15:16;;;;;;;65.75;30.63;;;;;;;;;;5096534;28;20511;-75
2022/01/01 01:17:42;;;;;;;57.30;28.60;;;;;;;;;;5099040;28;20233;-75
2022/01/01 01:20:09;;;;;;;47.80;24.90;;;;;;;;;;5095515;28;20024;-81
2022/01/01 01:22:35;;;;;;;56.97;27.38;;;;;;;;;;5097071;28;20047;-78
2022/01/01 01:25:01;;;;;;;63.15;29.90;;;;;;;;;;5104250;28;20024;-76
2022/01/01 01:27:29;;;;;;;55.67;27.70;;;;;;;;;;5098610;28;20031;-76
2022/01/01 01:29:58;;;;;;;63.33;28.48;;;;;;;;;;5096468;28;20031;-77
2022/01/01 01:32:24;;;;;;;53.67;27.05;;;;;;;;;;5096759;28;20599;-78
2022/01/01 01:34:50;;;;;;;69.72;25.73;;;;;;;;;;5093861;28;20028;-72
2022/01/01 01:37:17;;;;;;;37.58;16.27;;;;;;;;;;5097634;28;20035;-72
2022/01/01 01:39:43;;;;;;;39.38;18.83;;;;;;;;;;5095807;28;20028;-71
2022/01/01 01:42:09;;;;;;;38.42;19.30;;;;;;;;;;5095227;28;20376;-71
2022/01/01 01:44:42;;;;;;;43.05;21.38;;;;;;;;;;5102867;28;20566;-72
2022/01/01 10:39:09;;;;;;;13.18;8.75;;;;;;;;;;5117836;27;20113;-75
2022/01/01 10:41:46;;;;;;;11.52;8.30;;;;;;;;;;5100774;28;20026;-76
2022/01/01 10:44:12;;;;;;;12.75;7.65;;;;;;;;;;5102042;28;20040;-75
2022/01/01 10:46:39;;;;;;;8.98;6.65;;;;;;;;;;5102203;28;20024;-74
2022/01/01 10:49:32;;;;;;;9.32;6.30;;;;;;;;;;5113789;28;20023;-72
2022/01/01 10:52:13;;;;;;;8.18;5.68;;;;;;;;;;5108863;28;20066;-73
2022/01/01 10:54:47;;;;;;;8.52;5.72;;;;;;;;;;5105815;28;20096;-73
2022/01/01 10:57:13;;;;;;;7.32;5.80;;;;;;;;;;5107244;28;20031;-74
2022/01/01 10:59:39;;;;;;;10.68;5.53;;;;;;;;;;5109116;28;20470;-73
2022/01/01 11:02:08;;;;;;;7.70;5.55;;;;;;;;;;5111735;28;20032;-73
2022/01/01 11:04:34;;;;;;;6.95;5.28;;;;;;;;;;5111560;28;20027;-75
2022/01/01 11:07:01;;;;;;;7.22;4.75;;;;;;;;;;5113423;28;20027;-74
2022/01/01 11:09:28;;;;;;;6.35;4.82;;;;;;;;;;5099866;28;20378;-73
2022/01/01 11:12:02;;;;;;;10.63;4.88;;;;;;;;;;5095022;28;20024;-75
2022/01/01 11:14:28;;;;;;;5.47;4.80;;;;;;;;;;5093412;28;20047;-71
2022/01/01 11:16:54;;;;;;;5.30;4.32;;;;;;;;;;5088096;28;20032;-73
2022/01/01 11:19:24;;;;;;;5.28;3.97;;;;;;;;;;5107561;28;20051;-75
2022/01/01 11:21:50;;;;;;;6.03;4.50;;;;;;;;;;5110845;28;20023;-79
2022/01/01 11:24:17;;;;;;;5.22;3.30;;;;;;;;;;5108391;28;20047;-78
2022/01/01 11:26:45;;;;;;;5.60;3.50;;;;;;;;;;5115008;28;20015;-78
2022/01/01 11:29:13;;;;;;;7.45;3.53;;;;;;;;;;5114001;28;20020;-77
2022/01/01 11:31:40;;;;;;;6.93;3.30;;;;;;;;;;5112426;28;20490;-75
2022/01/01 11:34:07;;;;;;;4.55;3.22;;;;;;;;;;5113599;28;20540;-76
2022/01/01 11:36:34;;;;;;;5.97;3.03;;;;;;;;;;5113134;28;20020;-76
2022/01/01 11:39:05;;;;;;;6.25;3.22;;;;;;;;;;5115669;28;20510;-76
2022/01/01 11:41:50;;;;;;;4.95;3.53;;;;;;;;;;5113867;28;20052;-78
2022/01/01 11:44:32;;;;;;;4.18;2.67;;;;;;;;;;5089960;28;20032;-80
2022/01/01 11:47:00;;;;;;;5.15;3.05;;;;;;;;;;5084585;28;20112;-76
2022/01/01 11:49:27;;;;;;;3.70;2.65;;;;;;;;;;5093018;28;20601;-76
2022/01/01 11:51:54;;;;;;;4.78;3.08;;;;;;;;;;5097546;28;20046;-76
2022/01/01 11:54:40;;;;;;;3.50;2.78;;;;;;;;;;5080993;28;20082;-76
2022/01/01 11:57:19;;;;;;;3.80;2.55;;;;;;;;;;5082908;28;20032;-75
2022/01/01 11:59:47;;;;;;;3.80;2.60;;;;;;;;;;5080525;28;20028;-74
2022/01/01 12:02:13;;;;;;;3.90;2.70;;;;;;;;;;5084259;28;20062;-76
2022/01/01 12:04:44;;;;;;;3.78;2.92;;;;;;;;;;5092094;28;20023;-76
2022/01/01 12:07:13;;;;;;;4.07;2.60;;;;;;;;;;5095327;28;20039;-76
2022/01/01 12:09:58;;;;;;;5.05;2.75;;;;;;;;;;5089609;28;20019;-76
2022/01/01 12:12:36;;;;;;;4.65;2.75;;;;;;;;;;5092801;28;20020;-75
2022/01/01 12:15:02;;;;;;;4.38;2.53;;;;;;;;;;5097484;28;20066;-76
2022/01/01 12:17:28;;;;;;;5.25;2.67;;;;;;;;;;5094453;28;20036;-73
2022/01/01 12:19:55;;;;;;;4.45;2.60;;;;;;;;;;5098379;28;20437;-73
2022/01/01 12:22:24;;;;;;;3.25;2.40;;;;;;;;;;5102365;28;20364;-74
2022/01/01 12:24:53;;;;;;;3.25;2.60;;;;;;;;;;5091617;28;20027;-73
2022/01/01 12:27:21;;;;;;;2.88;2.25;;;;;;;;;;5100788;28;20046;-75
2022/01/01 12:29:48;;;;;;;3.80;2.25;;;;;;;;;;5093615;28;20028;-75
2022/01/01 12:32:37;;;;;;;5.68;2.30;;;;;;;;;;5091368;28;20057;-76
2022/01/01 12:35:08;;;;;;;3.95;2.33;;;;;;;;;;5088285;28;20024;-76
2022/01/01 12:37:37;;;;;;;4.65;2.20;;;;;;;;;;5093055;28;20059;-74
2022/01/01 12:40:05;;;;;;;4.07;2.55;;;;;;;;;;5089800;28;20103;-74
2022/01/01 12:42:32;;;;;;;7.13;3.17;;;;;;;;;;5095613;28;20020;-75
2022/01/01 12:45:03;;;;;;;4.32;2.20;;;;;;;;;;5077933;28;20023;-75
2022/01/01 12:47:30;;;;;;;3.83;2.08;;;;;;;;;;5086997;28;20040;-75
2022/01/01 12:50:00;;;;;;;3.40;2.10;;;;;;;;;;5088706;28;20060;-74
2022/01/01 12:52:27;;;;;;;;;;;;;;;;;;5087556;28;20047;-74
2022/01/01 12:54:54;;;;;;;4.65;2.22;;;;;;;;;;5084026;28;19938;-75
2022/01/01 12:57:20;;;;;;;2.85;1.80;;;;;;;;;;5084764;28;20024;-75
2022/01/01 12:59:50;;;;;;;3.08;2.20;;;;;;;;;;5088574;28;20054;-74
2022/01/01 13:02:17;;;;;;;3.30;1.90;;;;;;;;;;5089163;28;20034;-75
2022/01/01 13:04:43;;;;;;;2.55;1.67;;;;;;;;;;5086597;28;20024;-76
2022/01/01 13:07:10;;;;;;;2.92;1.70;;;;;;;;;;5087225;28;20077;-74
2022/01/01 13:09:36;;;;;;;4.80;1.65;;;;;;;;;;5089681;28;20043;-75
2022/01/01 13:12:04;;;;;;;2.05;1.80;;;;;;;;;;5087468;28;20415;-73
2022/01/01 13:14:31;;;;;;;2.65;1.85;;;;;;;;;;5086569;28;20536;-76
2022/01/01 13:16:58;;;;;;;3.00;2.03;;;;;;;;;;5088288;28;20554;-74
2022/01/01 13:19:24;;;;;;;2.75;1.98;;;;;;;;;;5083629;28;20032;-76
2022/01/01 13:21:54;;;;;;;4.85;2.80;;;;;;;;;;5087055;28;20106;-76
2022/01/01 13:24:23;;;;;;;4.00;2.73;;;;;;;;;;5086340;28;20036;-76
2022/01/01 13:26:49;;;;;;;4.38;2.80;;;;;;;;;;5087647;28;20023;-75
2022/01/01 13:29:15;;;;;;;3.33;2.40;;;;;;;;;;5087095;28;20471;-75
2022/01/01 13:31:41;;;;;;;4.63;2.90;;;;;;;;;;5089318;28;20024;-75
2022/01/01 13:34:11;;;;;;;4.55;2.47;;;;;;;;;;5089505;28;20036;-75
2022/01/01 13:36:46;;;;;;;4.13;2.45;;;;;;;;;;5085091;28;20083;-75
2022/01/01 13:39:17;;;;;;;4.05;2.25;;;;;;;;;;5086541;28;20040;-75
2022/01/01 13:41:44;;;;;;;4.43;2.38;;;;;;;;;;5086735;28;20457;-74
2022/01/01 13:44:17;;;;;;;3.97;1.90;;;;;;;;;;5085628;28;20025;-74
2022/01/01 13:46:44;;;;;;;4.57;2.00;;;;;;;;;;5087391;28;20027;-73
2022/01/01 13:49:12;;;;;;;2.95;2.30;;;;;;;;;;5093014;28;20209;-75
2022/01/01 13:51:38;;;;;;;3.72;2.10;;;;;;;;;;5096229;28;20024;-75
2022/01/01 13:54:05;;;;;;;4.05;1.98;;;;;;;;;;5088352;28;20032;-74
2022/01/01 13:56:32;;;;;;;3.28;2.38;;;;;;;;;;5084741;28;20475;-74
2022/01/01 13:58:58;;;;;;;2.92;2.10;;;;;;;;;;5093464;28;20086;-74
2022/01/01 14:01:25;;;;;;;2.60;1.85;;;;;;;;;;5101898;28;20068;-74
2022/01/01 14:03:53;;;;;;;3.03;1.80;;;;;;;;;;5101657;28;20023;-73
2022/01/01 14:06:29;;;;;;;3.95;2.38;;;;;;;;;;5089466;28;20022;-74
2022/01/01 14:08:59;;;;;;;3.97;2.05;;;;;;;;;;5090272;28;20032;-74
2022/01/01 14:11:31;;;;;;;2.55;1.88;;;;;;;;;;5093008;28;20157;-75
2022/01/01 14:14:15;;;;;;;3.15;1.90;;;;;;;;;;5094744;28;20557;-75
2022/01/01 14:16:44;;;;;;;2.78;2.03;;;;;;;;;;5096540;28;20048;-74
2022/01/01 14:19:18;;;;;;;3.10;1.92;;;;;;;;;;5102552;28;20097;-75
2022/01/01 14:21:45;;;;;;;2.78;1.80;;;;;;;;;;5095427;28;20020;-75
2022/01/01 14:24:15;;;;;;;3.20;2.30;;;;;;;;;;5098568;28;20070;-75
2022/01/01 14:26:42;;;;;;;3.55;2.03;;;;;;;;;;5099361;28;20132;-74
2022/01/01 14:29:08;;;;;;;3.25;2.15;;;;;;;;;;5094774;28;20422;-74
2022/01/01 14:31:35;;;;;;;5.40;2.92;;;;;;;;;;5101121;28;20442;-75
2022/01/01 14:34:02;;;;;;;4.28;2.17;;;;;;;;;;5100991;28;20031;-75
2022/01/01 14:36:28;;;;;;;6.35;2.47;;;;;;;;;;5091146;28;20052;-74
2022/01/01 14:38:54;;;;;;;5.20;2.28;;;;;;;;;;5088486;28;20055;-74
2022/01/01 14:41:22;;;;;;;4.30;2.50;;;;;;;;;;5089562;28;20028;-74
2022/01/01 14:43:49;;;;;;;4.85;2.40;;;;;;;;;;5077659;28;20036;-74
2022/01/01 14:46:19;;;;;;;4.20;2.22;;;;;;;;;;5092598;28;20015;-75
2022/01/01 14:48:52;;;;;;;3.45;2.33;;;;;;;;;;5093459;28;20055;-74
2022/01/01 14:51:20;;;;;;;4.38;2.50;;;;;;;;;;5091060;28;20101;-75
2022/01/01 14:53:57;;;;;;;3.28;2.38;;;;;;;;;;5091991;28;20398;-75
2022/01/01 14:56:32;;;;;;;3.88;2.33;;;;;;;;;;5095172;28;20111;-74
2022/01/01 14:59:05;;;;;;;2.53;2.03;;;;;;;;;;5091222;28;20036;-75
2022/01/01 15:01:32;;;;;;;3.47;2.30;;;;;;;;;;5092433;28;20021;-75
2022/01/01 15:03:59;;;;;;;6.50;2.30;;;;;;;;;;5087443;28;20032;-74
2022/01/01 15:06:26;;;;;;;6.97;2.67;;;;;;;;;;5078543;28;20055;-74
2022/01/01 15:08:57;;;;;;;3.53;2.42;;;;;;;;;;5083793;28;20069;-75
2022/01/01 15:11:24;;;;;;;5.65;2.40;;;;;;;;;;5084963;28;20052;-75
2022/01/01 15:13:51;;;;;;;5.10;2.63;;;;;;;;;;5089652;28;20070;-74
2022/01/01 15:16:17;;;;;;;3.72;2.47;;;;;;;;;;5089790;28;20023;-75
2022/01/01 15:18:43;;;;;;;3.80;2.33;;;;;;;;;;5099841;28;21467;-75
2022/01/01 15:21:13;;;;;;;4.70;2.53;;;;;;;;;;5089462;28;20023;-74
2022/01/01 15:23:42;;;;;;;3.47;2.60;;;;;;;;;;5087582;28;20028;-75
2022/01/01 15:26:11;;;;;;;3.60;2.60;;;;;;;;;;5090895;28;20032;-74
2022/01/01 15:28:37;;;;;;;5.13;2.55;;;;;;;;;;5097885;28;20016;-74
2022/01/01 15:31:18;;;;;;;4.07;2.60;;;;;;;;;;5102866;28;20064;-74
2022/01/01 15:33:45;;;;;;;4.05;2.40;;;;;;;;;;5101408;28;20119;-74
2022/01/01 15:36:19;;;;;;;5.20;2.70;;;;;;;;;;5094900;28;20028;-75
2022/01/01 15:38:50;;;;;;;3.50;2.55;;;;;;;;;;5096853;28;20044;-74
2022/01/01 15:43:47;;;;;;;4.00;2.40;;;;;;;;;;5098069;28;20042;-75
2022/01/01 15:46:13;;;;;;;3.22;2.50;;;;;;;;;;5102785;28;20028;-75
2022/01/01 15:48:40;;;;;;;4.63;2.40;;;;;;;;;;5099767;28;20031;-75
2022/01/01 15:51:06;;;;;;;4.38;2.25;;;;;;;;;;5097251;28;20109;-75
2022/01/01 15:53:36;;;;;;;3.67;2.60;;;;;;;;;;5091270;28;20032;-75
2022/01/01 15:56:06;;;;;;;4.25;2.72;;;;;;;;;;5088523;28;20012;-75
2022/01/01 15:58:45;;;;;;;5.72;2.90;;;;;;;;;;5092534;28;20028;-74
2022/01/01 16:01:16;;;;;;;5.53;3.00;;;;;;;;;;5096377;28;20028;-75
2022/01/01 16:03:47;;;;;;;5.18;3.35;;;;;;;;;;5089442;28;20020;-73
2022/01/01 16:06:14;;;;;;;4.82;3.95;;;;;;;;;;5092555;28;20038;-73
2022/01/01 16:08:47;;;;;;;6.13;3.40;;;;;;;;;;5090747;28;20455;-74
2022/01/01 16:11:15;;;;;;;3.85;2.50;;;;;;;;;;5094415;28;20016;-75
2022/01/01 16:13:45;;;;;;;4.20;2.70;;;;;;;;;;5084021;28;20024;-75
2022/01/01 16:16:13;;;;;;;4.85;2.60;;;;;;;;;;5082430;28;20107;-74
2022/01/01 16:18:43;;;;;;;4.25;2.72;;;;;;;;;;5080851;28;20072;-74
2022/01/01 16:21:10;;;;;;;4.25;3.00;;;;;;;;;;5077467;28;20024;-73
2022/01/01 16:23:37;;;;;;;5.70;3.30;;;;;;;;;;5078001;28;20028;-74
2022/01/01 16:26:04;;;;;;;5.32;3.90;;;;;;;;;;5079467;28;20035;-75
2022/01/01 16:28:30;;;;;;;6.20;3.97;;;;;;;;;;5077700;28;20021;-74
2022/01/01 16:30:56;;;;;;;6.63;3.80;;;;;;;;;;5086755;28;20566;-74
2022/01/01 16:33:22;;;;;;;6.57;4.35;;;;;;;;;;5095628;28;20032;-74
2022/01/01 16:35:50;;;;;;;8.43;5.03;;;;;;;;;;5107622;27;20055;-74
2022/01/01 16:38:17;;;;;;;7.07;3.85;;;;;;;;;;5089904;28;20051;-75
2022/01/01 16:40:50;;;;;;;6.53;3.90;;;;;;;;;;5097178;28;20024;-75
2022/01/01 16:43:18;;;;;;;6.88;4.05;;;;;;;;;;5096788;28;20031;-73
2022/01/01 16:45:48;;;;;;;9.20;4.70;;;;;;;;;;5091007;28;20043;-72
2022/01/01 16:48:14;;;;;;;;;;;;;;;;;;5085358;28;20395;-75
2022/01/01 16:50:42;;;;;;;7.53;4.97;;;;;;;;;;5088158;28;19995;-74
2022/01/01 16:53:09;;;;;;;9.70;5.43;;;;;;;;;;5090913;28;20024;-74
2022/01/01 16:55:37;;;;;;;6.38;4.93;;;;;;;;;;5093829;28;20032;-73
2022/01/01 16:58:13;;;;;;;6.72;4.95;;;;;;;;;;5105179;28;20185;-76
2022/01/01 17:00:48;;;;;;;7.88;5.40;;;;;;;;;;5094162;28;20031;-75
2022/01/01 17:03:32;;;;;;;8.82;5.60;;;;;;;;;;5091857;28;20024;-75
2022/01/01 17:05:59;;;;;;;6.70;5.25;;;;;;;;;;5090939;28;20043;-76
2022/01/01 17:08:26;;;;;;;9.70;6.00;;;;;;;;;;5090849;28;20379;-74
2022/01/01 17:10:53;;;;;;;14.45;6.03;;;;;;;;;;5092552;28;20074;-74
2022/01/01 17:13:21;;;;;;;11.32;5.85;;;;;;;;;;5097248;28;20516;-75
2022/01/01 17:15:51;;;;;;;8.32;6.03;;;;;;;;;;5086182;28;20032;-75
2022/01/01 17:18:17;;;;;;;;;;;;;;;;;;5089287;28;20031;-73
2022/01/01 17:20:50;;;;;;;9.27;7.07;;;;;;;;;;5088182;28;19908;-73
2022/01/01 17:23:34;;;;;;;8.93;6.50;;;;;;;;;;5091348;28;20037;-72
2022/01/01 17:26:02;;;;;;;7.85;5.85;;;;;;;;;;5086301;28;20483;-74
2022/01/01 17:28:37;;;;;;;8.20;5.30;;;;;;;;;;5083650;28;20024;-74
2022/01/01 17:31:03;;;;;;;10.10;5.50;;;;;;;;;;5081406;28;20028;-75
2022/01/01 17:33:37;;;;;;;9.60;5.50;;;;;;;;;;5083671;28;20032;-68
2022/01/01 17:36:27;;;;;;;9.18;5.97;;;;;;;;;;5083135;28;20159;-73
2022/01/01 17:41:42;;;;;;;12.68;7.22;;;;;;;;;;5086428;28;20118;-74
2022/01/01 17:44:09;;;;;;;12.25;7.43;;;;;;;;;;5083521;28;20028;-72
2022/01/01 17:46:35;;;;;;;12.82;7.32;;;;;;;;;;5078738;28;20547;-72
2022/01/01 17:49:03;;;;;;;13.13;8.10;;;;;;;;;;5081439;28;20186;-71
2022/01/01 17:51:34;;;;;;;11.13;7.88;;;;;;;;;;5076529;28;20055;-71
2022/01/01 17:54:01;;;;;;;12.32;8.48;;;;;;;;;;5078268;28;20024;-74
2022/01/01 17:56:27;;;;;;;13.95;9.70;;;;;;;;;;5076478;28;20020;-72
2022/01/01 17:58:54;;;;;;;14.02;8.52;;;;;;;;;;5090040;28;20546;-74
2022/01/01 18:01:20;;;;;;;11.13;7.05;;;;;;;;;;5080519;28;20016;-71
2022/01/01 18:03:47;;;;;;;10.32;6.65;;;;;;;;;;5082939;28;20028;-75
2022/01/01 18:06:15;;;;;;;12.98;7.00;;;;;;;;;;5082263;28;20154;-76
2022/01/01 18:08:43;;;;;;;9.88;6.28;;;;;;;;;;5084309;28;20029;-77
2022/01/01 18:11:12;;;;;;;12.85;9.30;;;;;;;;;;5094985;28;20482;-74
2022/01/01 18:13:46;;;;;;;11.32;7.20;;;;;;;;;;5090076;28;20399;-74
2022/01/01 18:16:13;;;;;;;10.07;6.05;;;;;;;;;;5094277;28;20016;-80
2022/01/01 18:18:48;;;;;;;9.75;6.90;;;;;;;;;;5090229;28;20082;-79
2022/01/01 18:21:15;;;;;;;12.25;6.85;;;;;;;;;;5095665;28;20240;-76
2022/01/01 18:23:45;;;;;;;11.48;6.93;;;;;;;;;;5098162;28;20368;-76
2022/01/01 18:26:12;;;;;;;12.18;7.10;;;;;;;;;;5094212;28;20491;-75
2022/01/01 18:28:40;;;;;;;8.07;5.57;;;;;;;;;;5099675;28;20073;-74
2022/01/01 18:31:08;;;;;;;6.10;4.00;;;;;;;;;;5083124;28;20131;-73
2022/01/01 18:33:35;;;;;;;9.30;4.80;;;;;;;;;;5081934;28;20499;-76
2022/01/01 18:36:01;;;;;;;5.97;3.67;;;;;;;;;;5094016;28;20036;-78
2022/01/01 18:38:30;;;;;;;11.88;5.10;;;;;;;;;;5092977;28;20036;-76
2022/01/01 18:40:57;;;;;;;8.95;4.82;;;;;;;;;;5093895;28;20060;-78
2022/01/01 18:43:27;;;;;;;9.07;5.07;;;;;;;;;;5099698;28;20032;-77
2022/01/01 18:45:54;;;;;;;9.02;5.43;;;;;;;;;;5098671;28;20032;-78
2022/01/01 18:48:20;;;;;;;11.55;6.25;;;;;;;;;;5094758;28;20020;-77
2022/01/01 18:50:59;;;;;;;11.05;7.22;;;;;;;;;;5097624;28;20024;-76
2022/01/01 18:53:27;;;;;;;12.27;7.90;;;;;;;;;;5088832;28;20122;-77
2022/01/01 18:55:54;;;;;;;13.10;7.90;;;;;;;;;;5095583;28;20441;-75
2022/01/01 18:58:21;;;;;;;15.57;9.52;;;;;;;;;;5099767;28;20040;-74
2022/01/01 19:00:53;;;;;;;15.98;9.98;;;;;;;;;;5101979;28;20078;-78
2022/01/01 19:03:29;;;;;;;24.25;13.90;;;;;;;;;;5095262;28;20038;-79
2022/01/01 19:05:58;;;;;;;22.00;12.43;;;;;;;;;;5096411;28;20083;-72
2022/01/01 19:08:26;;;;;;;23.08;15.18;;;;;;;;;;5097386;28;20031;-77
2022/01/01 19:10:53;;;;;;;24.77;16.45;;;;;;;;;;5100560;28;20031;-72
2022/01/01 19:13:21;;;;;;;20.50;13.55;;;;;;;;;;5101145;28;20499;-76
2022/01/01 19:15:54;;;;;;;16.20;10.00;;;;;;;;;;5095465;28;20034;-72
2022/01/01 19:18:22;;;;;;;14.13;9.32;;;;;;;;;;5101216;28;20035;-75
2022/01/01 19:20:49;;;;;;;14.50;9.38;;;;;;;;;;5097780;28;20046;-73
2022/01/01 19:23:24;;;;;;;14.50;9.10;;;;;;;;;;5098536;28;20030;-72
2022/01/01 19:25:51;;;;;;;20.35;11.52;;;;;;;;;;5094831;28;20019;-69
2022/01/01 19:28:18;;;;;;;18.10;10.77;;;;;;;;;;5091159;28;20039;-71
2022/01/01 19:30:45;;;;;;;17.00;11.23;;;;;;;;;;5100290;28;20530;-71
2022/01/01 19:33:11;;;;;;;18.17;11.82;;;;;;;;;;5099558;28;20105;-69
2022/01/01 19:35:44;;;;;;;22.33;13.05;;;;;;;;;;5098994;28;20024;-68
2022/01/01 19:38:11;;;;;;;16.85;10.68;;;;;;;;;;5097804;28;20189;-68
2022/01/01 19:40:38;;;;;;;14.60;10.35;;;;;;;;;;5099492;28;20019;-70
2022/01/01 19:43:15;;;;;;;21.33;12.93;;;;;;;;;;5087006;28;20028;-75
2022/01/01 19:45:43;;;;;;;19.27;12.48;;;;;;;;;;5079739;28;20024;-82
2022/01/01 19:48:14;;;;;;;19.63;11.07;;;;;;;;;;5087188;28;20039;-80
2022/01/01 19:50:40;;;;;;;15.05;9.90;;;;;;;;;;5082111;28;20028;-79
2022/01/01 19:53:10;;;;;;;16.48;10.30;;;;;;;;;;5083140;28;20381;-68
2022/01/01 19:55:38;;;;;;;16.20;10.10;;;;;;;;;;5077647;28;20490;-71
2022/01/01 19:58:05;;;;;;;17.27;9.48;;;;;;;;;;5082192;28;20048;-72
2022/01/01 20:00:31;;;;;;;13.27;8.85;;;;;;;;;;5086602;28;20160;-72
2022/01/01 20:02:57;;;;;;;13.73;7.95;;;;;;;;;;5092459;28;20109;-73
2022/01/01 20:05:24;;;;;;;13.45;8.43;;;;;;;;;;5094182;28;20065;-72
2022/01/01 20:07:51;;;;;;;14.93;9.07;;;;;;;;;;5080829;28;20046;-73
2022/01/01 20:10:19;;;;;;;14.02;8.95;;;;;;;;;;5081873;28;20028;-72
2022/01/01 20:12:45;;;;;;;14.07;9.02;;;;;;;;;;5076077;28;20041;-72
2022/01/01 20:15:12;;;;;;;18.13;9.20;;;;;;;;;;5078483;28;20360;-70
2022/01/01 20:17:38;;;;;;;14.45;9.15;;;;;;;;;;5080613;28;20518;-69
2022/01/01 20:20:05;;;;;;;18.95;9.30;;;;;;;;;;5073886;28;20195;-71
2022/01/01 20:22:31;;;;;;;13.48;9.63;;;;;;;;;;5078628;28;20032;-71
2022/01/01 20:24:57;;;;;;;15.93;9.57;;;;;;;;;;5083945;28;20028;-70
2022/01/01 20:27:24;;;;;;;15.75;9.30;;;;;;;;;;5081169;28;20031;-71
2022/01/01 20:29:52;;;;;;;14.20;9.48;;;;;;;;;;5081513;28;20028;-70
2022/01/01 20:32:18;;;;;;;14.95;9.10;;;;;;;;;;5084336;28;20404;-71
2022/01/01 20:34:45;;;;;;;12.00;8.02;;;;;;;;;;5080941;28;20025;-72
2022/01/01 20:37:11;;;;;;;15.68;8.27;;;;;;;;;;5081659;28;20029;-72
2022/01/01 20:39:37;;;;;;;11.77;7.85;;;;;;;;;;5082876;28;20027;-74
2022/01/01 20:42:04;;;;;;;14.25;7.88;;;;;;;;;;5087889;28;20027;-73
2022/01/01 20:44:30;;;;;;;11.40;7.55;;;;;;;;;;5083944;28;20081;-73
2022/01/01 20:46:57;;;;;;;12.30;7.50;;;;;;;;;;5084461;28;20027;-72
2022/01/01 20:49:23;;;;;;;12.38;6.70;;;;;;;;;;5091174;28;20031;-72
2022/01/01 20:51:49;;;;;;;9.00;6.63;;;;;;;;;;5085607;28;20027;-72
2022/01/01 20:54:16;;;;;;;12.38;7.05;;;;;;;;;;5087201;28;20048;-73
2022/01/01 20:56:43;;;;;;;9.35;6.70;;;;;;;;;;5093304;28;20028;-73
2022/01/01 20:59:09;;;;;;;10.43;6.72;;;;;;;;;;5084809;28;20046;-73
2022/01/01 21:01:35;;;;;;;11.38;6.75;;;;;;;;;;5084844;28;20032;-80
2022/01/01 21:04:03;;;;;;;10.27;6.78;;;;;;;;;;5092177;28;20046;-79
2022/01/01 21:06:31;;;;;;;11.60;6.78;;;;;;;;;;5093074;28;20058;-78
2022/01/01 21:08:58;;;;;;;10.50;7.15;;;;;;;;;;5090014;28;20092;-78
2022/01/01 21:11:26;;;;;;;10.52;7.25;;;;;;;;;;5095184;28;20375;-77
2022/01/01 21:13:53;;;;;;;14.05;7.85;;;;;;;;;;5087322;28;20425;-78
2022/01/01 21:16:19;;;;;;;10.95;7.03;;;;;;;;;;5089962;28;20148;-78
2022/01/01 21:18:46;;;;;;;13.55;7.32;;;;;;;;;;5084246;28;20036;-80
2022/01/01 21:21:14;;;;;;;12.77;7.43;;;;;;;;;;5090348;28;20035;-78
2022/01/01 21:23:40;;;;;;;10.98;7.35;;;;;;;;;;5094239;28;20509;-78
2022/01/01 21:26:06;;;;;;;11.90;7.70;;;;;;;;;;5083789;28;20498;-79
2022/01/01 21:28:36;;;;;;;11.68;7.68;;;;;;;;;;5092132;28;20596;-77
2022/01/01 21:31:02;;;;;;;10.70;7.95;;;;;;;;;;5072450;28;20020;-75
2022/01/01 21:33:28;;;;;;;13.95;8.82;;;;;;;;;;5082751;28;20050;-78
2022/01/01 21:35:54;;;;;;;12.27;7.88;;;;;;;;;;5092026;28;20089;-78
2022/01/01 21:38:20;;;;;;;13.73;8.52;;;;;;;;;;5092706;28;20036;-78
2022/01/01 21:40:47;;;;;;;11.93;7.70;;;;;;;;;;5083843;28;20535;-77
2022/01/01 21:43:13;;;;;;;11.13;7.50;;;;;;;;;;5081429;28;20262;-77
2022/01/01 21:45:40;;;;;;;10.35;7.45;;;;;;;;;;5092436;28;20032;-77
2022/01/01 21:48:06;;;;;;;10.15;7.35;;;;;;;;;;5094994;28;20024;-76
2022/01/01 21:50:32;;;;;;;11.23;7.75;;;;;;;;;;5091241;28;20390;-76
2022/01/01 21:52:59;;;;;;;10.70;7.38;;;;;;;;;;5087743;28;20032;-78
2022/01/01 21:55:25;;;;;;;10.10;7.18;;;;;;;;;;5091051;28;20097;-75
2022/01/01 21:57:51;;;;;;;11.15;8.30;;;;;;;;;;5091396;28;20033;-80
2022/01/01 22:00:17;;;;;;;11.65;8.25;;;;;;;;;;5090831;28;20467;-80
2022/01/01 22:02:44;;;;;;;11.45;7.90;;;;;;;;;;5094549;28;20058;-79
2022/01/01 22:05:10;;;;;;;12.88;7.63;;;;;;;;;;5088290;28;20024;-77
2022/01/01 22:07:36;;;;;;;10.73;7.88;;;;;;;;;;5091957;28;20019;-79
2022/01/01 22:10:03;;;;;;;11.70;8.45;;;;;;;;;;5089809;28;20134;-78
2022/01/01 22:12:29;;;;;;;12.38;8.25;;;;;;;;;;5094319;28;20042;-77
2022/01/01 22:14:55;;;;;;;11.02;7.95;;;;;;;;;;5098505;28;20099;-79
2022/01/01 22:17:21;;;;;;;10.23;7.47;;;;;;;;;;5098823;28;20090;-77
2022/01/01 22:19:48;;;;;;;12.02;8.00;;;;;;;;;;5090952;28;20032;-77
2022/01/01 22:22:14;;;;;;;10.88;7.50;;;;;;;;;;5089039;28;20028;-77
2022/01/01 22:24:41;;;;;;;8.95;6.57;;;;;;;;;;5083986;28;20036;-78
2022/01/01 22:27:07;;;;;;;10.00;7.13;;;;;;;;;;5093431;28;20435;-79
2022/01/01 22:29:33;;;;;;;8.13;6.40;;;;;;;;;;5098970;28;20418;-79
2022/01/01 22:31:59;;;;;;;10.02;6.57;;;;;;;;;;5094041;28;20028;-80
2022/01/01 22:34:26;;;;;;;9.73;6.65;;;;;;;;;;5090776;28;20028;-80
2022/01/01 22:36:52;;;;;;;10.68;6.38;;;;;;;;;;5095791;28;20028;-80
2022/01/01 22:39:18;;;;;;;7.90;5.85;;;;;;;;;;5092910;28;20152;-81
2022/01/01 22:41:44;;;;;;;7.15;5.13;;;;;;;;;;5096880;28;20024;-80
2022/01/01 22:44:10;;;;;;;8.80;4.75;;;;;;;;;;5082524;28;20063;-79
2022/01/01 22:46:37;;;;;;;5.05;4.28;;;;;;;;;;5085775;28;20016;-78
2022/01/01 22:49:03;;;;;;;5.78;4.03;;;;;;;;;;5083899;28;20090;-77
2022/01/01 22:51:29;;;;;;;6.35;4.68;;;;;;;;;;5081221;28;20028;-77
2022/01/01 22:53:55;;;;;;;5.40;3.83;;;;;;;;;;5089406;28;20414;-77
2022/01/01 22:56:21;;;;;;;5.70;3.60;;;;;;;;;;5084695;28;20384;-76
2022/01/01 22:58:47;;;;;;;5.30;3.30;;;;;;;;;;5092063;28;20044;-76
